sensor_id;sensor_type;location;lat;lon;timestamp;temperature;humidity
73133;DHT22;61320;52.008;4.530;2022-09-09T00:01:21;18.26;78.93
73133;DHT22;61320;52.008;4.530;2022-09-09T00:03:54;18.29;79.08
73133;DHT22;61320;52.008;4.530;2022-09-09T00:06:31;18.36;78.51
73133;DHT22;61320;52.008;4.530;2022-09-09T00:09:17;18.37;77.92
73133;DHT22;61320;52.008;4.530;2022-09-09T00:11:49;18.29;78.57
73133;DHT22;61320;52.008;4.530;2022-09-09T00:14:25;18.26;78.24
73133;DHT22;61320;52.008;4.530;2022-09-09T00:17:01;18.26;77.84
73133;DHT22;61320;52.008;4.530;2022-09-09T00:22:02;18.16;78.40
73133;DHT22;61320;52.008;4.530;2022-09-09T00:24:46;18.20;78.65
73133;DHT22;61320;52.008;4.530;2022-09-09T00:27:41;18.24;78.95
73133;DHT22;61320;52.008;4.530;2022-09-09T00:32:41;18.23;77.45
73133;DHT22;61320;52.008;4.530;2022-09-09T00:35:22;18.20;77.88
73133;DHT22;61320;52.008;4.530;2022-09-09T00:37:53;18.10;78.36
73133;DHT22;61320;52.008;4.530;2022-09-09T00:40:30;18.13;78.67
73133;DHT22;61320;52.008;4.530;2022-09-09T00:49:46;18.10;78.09
73133;DHT22;61320;52.008;4.530;2022-09-09T00:52:15;18.11;78.30
73133;DHT22;61320;52.008;4.530;2022-09-09T00:55:07;18.06;79.39
73133;DHT22;61320;52.008;4.530;2022-09-09T00:57:36;18.03;78.77
73133;DHT22;61320;52.008;4.530;2022-09-09T01:10:59;17.69;79.75
73133;DHT22;61320;52.008;4.530;2022-09-09T01:13:28;17.69;78.91
73133;DHT22;61320;52.008;4.530;2022-09-09T01:15:58;17.66;79.10
73133;DHT22;61320;52.008;4.530;2022-09-09T01:18:48;17.65;79.77
73133;DHT22;61320;52.008;4.530;2022-09-09T01:21:43;17.76;79.44
73133;DHT22;61320;52.008;4.530;2022-09-09T01:26:50;17.97;80.64
73133;DHT22;61320;52.008;4.530;2022-09-09T01:29:19;18.06;80.20
73133;DHT22;61320;52.008;4.530;2022-09-09T01:32:43;18.16;80.39
73133;DHT22;61320;52.008;4.530;2022-09-09T01:34:42;18.18;79.31
73133;DHT22;61320;52.008;4.530;2022-09-09T01:37:13;18.20;79.69
73133;DHT22;61320;52.008;4.530;2022-09-09T01:39:43;18.13;77.78
73133;DHT22;61320;52.008;4.530;2022-09-09T01:42:13;18.03;78.62
73133;DHT22;61320;52.008;4.530;2022-09-09T01:44:39;18.01;79.51
73133;DHT22;61320;52.008;4.530;2022-09-09T01:47:06;18.03;78.86
73133;DHT22;61320;52.008;4.530;2022-09-09T01:49:32;18.01;78.94
73133;DHT22;61320;52.008;4.530;2022-09-09T01:51:59;18.01;78.80
73133;DHT22;61320;52.008;4.530;2022-09-09T01:54:29;18.01;78.08
73133;DHT22;61320;52.008;4.530;2022-09-09T01:57:08;18.00;78.52
73133;DHT22;61320;52.008;4.530;2022-09-09T02:00:06;17.99;78.24
73133;DHT22;61320;52.008;4.530;2022-09-09T02:02:47;17.93;78.37
73133;DHT22;61320;52.008;4.530;2022-09-09T02:05:45;17.92;78.92
73133;DHT22;61320;52.008;4.530;2022-09-09T02:08:40;17.90;79.40
73133;DHT22;61320;52.008;4.530;2022-09-09T02:11:19;17.93;79.33
73133;DHT22;61320;52.008;4.530;2022-09-09T02:13:47;18.00;78.97
73133;DHT22;61320;52.008;4.530;2022-09-09T02:16:56;18.00;77.77
73133;DHT22;61320;52.008;4.530;2022-09-09T02:19:37;17.97;78.00
73133;DHT22;61320;52.008;4.530;2022-09-09T02:22:04;17.90;78.64
73133;DHT22;61320;52.008;4.530;2022-09-09T02:24:34;17.90;78.01
73133;DHT22;61320;52.008;4.530;2022-09-09T02:27:04;17.92;79.42
73133;DHT22;61320;52.008;4.530;2022-09-09T02:29:38;17.93;78.75
73133;DHT22;61320;52.008;4.530;2022-09-09T02:32:13;17.97;79.05
73133;DHT22;61320;52.008;4.530;2022-09-09T02:34:45;17.94;78.16
73133;DHT22;61320;52.008;4.530;2022-09-09T02:37:17;18.01;78.22
73133;DHT22;61320;52.008;4.530;2022-09-09T02:39:43;17.96;78.42
73133;DHT22;61320;52.008;4.530;2022-09-09T02:42:09;17.94;78.44
73133;DHT22;61320;52.008;4.530;2022-09-09T02:44:35;17.93;78.71
73133;DHT22;61320;52.008;4.530;2022-09-09T02:55:19;18.01;77.52
73133;DHT22;61320;52.008;4.530;2022-09-09T02:57:49;18.00;77.76
73133;DHT22;61320;52.008;4.530;2022-09-09T03:00:15;18.01;77.67
73133;DHT22;61320;52.008;4.530;2022-09-09T03:02:40;17.99;79.27
73133;DHT22;61320;52.008;4.530;2022-09-09T03:05:07;17.97;78.69
73133;DHT22;61320;52.008;4.530;2022-09-09T03:07:33;18.00;77.22
73133;DHT22;61320;52.008;4.530;2022-09-09T03:09:58;17.92;77.33
73133;DHT22;61320;52.008;4.530;2022-09-09T03:12:24;17.86;78.31
73133;DHT22;61320;52.008;4.530;2022-09-09T03:14:49;17.87;77.69
73133;DHT22;61320;52.008;4.530;2022-09-09T03:17:15;17.94;78.16
73133;DHT22;61320;52.008;4.530;2022-09-09T03:19:40;17.92;79.16
73133;DHT22;61320;52.008;4.530;2022-09-09T03:22:07;17.93;78.14
73133;DHT22;61320;52.008;4.530;2022-09-09T03:24:33;17.90;78.15
73133;DHT22;61320;52.008;4.530;2022-09-09T03:26:58;17.92;76.99
73133;DHT22;61320;52.008;4.530;2022-09-09T03:29:23;17.85;79.63
73133;DHT22;61320;52.008;4.530;2022-09-09T03:31:49;17.87;77.37
73133;DHT22;61320;52.008;4.530;2022-09-09T03:34:15;17.89;78.30
73133;DHT22;61320;52.008;4.530;2022-09-09T03:36:41;17.82;79.19
73133;DHT22;61320;52.008;4.530;2022-09-09T03:39:06;17.89;78.45
73133;DHT22;61320;52.008;4.530;2022-09-09T03:41:31;17.93;78.92
73133;DHT22;61320;52.008;4.530;2022-09-09T03:43:57;17.96;78.06
73133;DHT22;61320;52.008;4.530;2022-09-09T03:46:24;17.93;77.42
73133;DHT22;61320;52.008;4.530;2022-09-09T03:48:50;17.92;77.54
73133;DHT22;61320;52.008;4.530;2022-09-09T03:51:18;17.86;78.10
73133;DHT22;61320;52.008;4.530;2022-09-09T03:53:44;17.87;77.33
73133;DHT22;61320;52.008;4.530;2022-09-09T03:56:10;17.80;78.87
73133;DHT22;61320;52.008;4.530;2022-09-09T03:58:37;17.85;77.44
73133;DHT22;61320;52.008;4.530;2022-09-09T04:01:06;17.80;76.96
73133;DHT22;61320;52.008;4.530;2022-09-09T04:03:33;17.80;77.76
73133;DHT22;61320;52.008;4.530;2022-09-09T04:06:01;17.75;77.36
73133;DHT22;61320;52.008;4.530;2022-09-09T04:08:27;17.80;77.68
73133;DHT22;61320;52.008;4.530;2022-09-09T04:10:53;17.72;77.13
73133;DHT22;61320;52.008;4.530;2022-09-09T04:13:22;17.73;77.85
73133;DHT22;61320;52.008;4.530;2022-09-09T04:15:52;17.69;77.69
73133;DHT22;61320;52.008;4.530;2022-09-09T04:18:18;17.69;77.72
73133;DHT22;61320;52.008;4.530;2022-09-09T04:20:46;17.76;77.48
73133;DHT22;61320;52.008;4.530;2022-09-09T04:23:13;17.71;77.61
73133;DHT22;61320;52.008;4.530;2022-09-09T04:25:44;17.71;78.12
73133;DHT22;61320;52.008;4.530;2022-09-09T04:28:10;17.71;77.19
73133;DHT22;61320;52.008;4.530;2022-09-09T04:30:35;17.72;78.01
73133;DHT22;61320;52.008;4.530;2022-09-09T04:33:01;17.69;77.44
73133;DHT22;61320;52.008;4.530;2022-09-09T04:35:26;17.61;77.13
73133;DHT22;61320;52.008;4.530;2022-09-09T04:37:52;17.55;77.65
73133;DHT22;61320;52.008;4.530;2022-09-09T04:40:18;17.51;77.66
73133;DHT22;61320;52.008;4.530;2022-09-09T04:42:43;17.45;77.81
73133;DHT22;61320;52.008;4.530;2022-09-09T04:45:17;17.46;78.37
73133;DHT22;61320;52.008;4.530;2022-09-09T04:47:43;17.52;78.20
73133;DHT22;61320;52.008;4.530;2022-09-09T04:50:09;17.55;77.74
73133;DHT22;61320;52.008;4.530;2022-09-09T04:52:37;17.48;78.32
73133;DHT22;61320;52.008;4.530;2022-09-09T04:55:03;17.49;78.38
73133;DHT22;61320;52.008;4.530;2022-09-09T04:57:30;17.52;78.43
73133;DHT22;61320;52.008;4.530;2022-09-09T04:59:59;17.48;78.17
73133;DHT22;61320;52.008;4.530;2022-09-09T05:02:26;17.58;77.12
73133;DHT22;61320;52.008;4.530;2022-09-09T05:04:54;17.46;78.66
73133;DHT22;61320;52.008;4.530;2022-09-09T05:07:20;17.46;77.82
73133;DHT22;61320;52.008;4.530;2022-09-09T05:09:45;17.43;78.03
73133;DHT22;61320;52.008;4.530;2022-09-09T05:12:13;17.36;78.50
73133;DHT22;61320;52.008;4.530;2022-09-09T05:14:38;17.36;78.36
73133;DHT22;61320;52.008;4.530;2022-09-09T05:17:04;17.30;78.12
73133;DHT22;61320;52.008;4.530;2022-09-09T05:19:30;17.28;79.11
73133;DHT22;61320;52.008;4.530;2022-09-09T05:21:56;17.36;79.72
73133;DHT22;61320;52.008;4.530;2022-09-09T05:24:22;17.42;78.66
73133;DHT22;61320;52.008;4.530;2022-09-09T05:26:48;17.42;79.49
73133;DHT22;61320;52.008;4.530;2022-09-09T05:29:14;17.48;77.83
73133;DHT22;61320;52.008;4.530;2022-09-09T05:31:39;17.48;78.03
73133;DHT22;61320;52.008;4.530;2022-09-09T05:34:04;17.46;78.16
73133;DHT22;61320;52.008;4.530;2022-09-09T05:36:30;17.55;79.21
73133;DHT22;61320;52.008;4.530;2022-09-09T05:38:55;17.59;77.42
73133;DHT22;61320;52.008;4.530;2022-09-09T05:41:21;17.59;78.89
73133;DHT22;61320;52.008;4.530;2022-09-09T05:43:48;17.59;78.82
73133;DHT22;61320;52.008;4.530;2022-09-09T05:46:17;17.62;79.08
73133;DHT22;61320;52.008;4.530;2022-09-09T05:48:45;17.71;78.07
73133;DHT22;61320;52.008;4.530;2022-09-09T05:51:17;17.73;78.36
73133;DHT22;61320;52.008;4.530;2022-09-09T05:53:44;17.76;78.50
73133;DHT22;61320;52.008;4.530;2022-09-09T05:56:15;17.86;77.72
73133;DHT22;61320;52.008;4.530;2022-09-09T05:58:41;17.83;77.93
73133;DHT22;61320;52.008;4.530;2022-09-09T06:01:33;17.87;77.17
73133;DHT22;61320;52.008;4.530;2022-09-09T06:03:58;17.80;77.52
73133;DHT22;61320;52.008;4.530;2022-09-09T06:06:25;17.83;78.61
73133;DHT22;61320;52.008;4.530;2022-09-09T06:08:53;17.93;78.60
73133;DHT22;61320;52.008;4.530;2022-09-09T06:11:25;17.96;78.16
73133;DHT22;61320;52.008;4.530;2022-09-09T06:13:52;18.00;76.47
73133;DHT22;61320;52.008;4.530;2022-09-09T06:16:21;18.04;77.15
73133;DHT22;61320;52.008;4.530;2022-09-09T06:18:48;18.01;77.46
73133;DHT22;61320;52.008;4.530;2022-09-09T06:21:19;18.00;78.28
73133;DHT22;61320;52.008;4.530;2022-09-09T06:23:46;18.07;77.86
73133;DHT22;61320;52.008;4.530;2022-09-09T06:26:18;18.16;76.15
73133;DHT22;61320;52.008;4.530;2022-09-09T06:28:45;18.13;76.99
73133;DHT22;61320;52.008;4.530;2022-09-09T06:31:15;18.11;76.44
73133;DHT22;61320;52.008;4.530;2022-09-09T06:33:47;18.11;76.85
73133;DHT22;61320;52.008;4.530;2022-09-09T06:36:21;18.10;77.14
73133;DHT22;61320;52.008;4.530;2022-09-09T06:38:48;18.07;77.60
73133;DHT22;61320;52.008;4.530;2022-09-09T06:41:16;18.17;76.95
73133;DHT22;61320;52.008;4.530;2022-09-09T06:43:43;18.16;76.51
73133;DHT22;61320;52.008;4.530;2022-09-09T06:48:36;18.17;76.12
73133;DHT22;61320;52.008;4.530;2022-09-09T06:51:05;18.09;76.59
73133;DHT22;61320;52.008;4.530;2022-09-09T06:53:33;18.17;77.79
73133;DHT22;61320;52.008;4.530;2022-09-09T06:56:13;18.33;77.74
73133;DHT22;61320;52.008;4.530;2022-09-09T06:58:42;18.34;76.88
73133;DHT22;61320;52.008;4.530;2022-09-09T07:01:12;18.36;77.25
73133;DHT22;61320;52.008;4.530;2022-09-09T07:03:39;18.34;77.03
73133;DHT22;61320;52.008;4.530;2022-09-09T07:06:05;18.44;77.52
73133;DHT22;61320;52.008;4.530;2022-09-09T07:08:31;18.48;76.87
73133;DHT22;61320;52.008;4.530;2022-09-09T07:11:05;18.48;75.73
73133;DHT22;61320;52.008;4.530;2022-09-09T07:13:31;18.38;76.99
73133;DHT22;61320;52.008;4.530;2022-09-09T07:16:08;18.37;77.13
73133;DHT22;61320;52.008;4.530;2022-09-09T07:18:34;18.41;76.78
73133;DHT22;61320;52.008;4.530;2022-09-09T07:21:01;18.44;76.16
73133;DHT22;61320;52.008;4.530;2022-09-09T07:23:28;18.38;76.91
73133;DHT22;61320;52.008;4.530;2022-09-09T07:25:54;18.37;76.66
73133;DHT22;61320;52.008;4.530;2022-09-09T07:28:20;18.27;77.02
73133;DHT22;61320;52.008;4.530;2022-09-09T07:31:00;18.34;76.65
73133;DHT22;61320;52.008;4.530;2022-09-09T07:33:31;18.37;75.77
73133;DHT22;61320;52.008;4.530;2022-09-09T07:36:09;18.34;75.21
73133;DHT22;61320;52.008;4.530;2022-09-09T07:38:40;18.29;76.53
73133;DHT22;61320;52.008;4.530;2022-09-09T07:41:10;18.29;77.36
73133;DHT22;61320;52.008;4.530;2022-09-09T07:43:40;18.33;76.44
73133;DHT22;61320;52.008;4.530;2022-09-09T07:46:08;18.34;75.83
73133;DHT22;61320;52.008;4.530;2022-09-09T07:48:34;18.38;75.96
73133;DHT22;61320;52.008;4.530;2022-09-09T07:51:10;18.37;76.50
73133;DHT22;61320;52.008;4.530;2022-09-09T07:53:38;18.37;76.32
73133;DHT22;61320;52.008;4.530;2022-09-09T07:56:05;18.38;76.67
73133;DHT22;61320;52.008;4.530;2022-09-09T07:58:31;18.40;76.71
73133;DHT22;61320;52.008;4.530;2022-09-09T08:00:56;18.44;77.03
73133;DHT22;61320;52.008;4.530;2022-09-09T08:03:23;18.54;76.40
73133;DHT22;61320;52.008;4.530;2022-09-09T08:05:49;18.54;75.98
73133;DHT22;61320;52.008;4.530;2022-09-09T08:08:15;18.57;76.37
73133;DHT22;61320;52.008;4.530;2022-09-09T08:10:42;18.55;76.30
73133;DHT22;61320;52.008;4.530;2022-09-09T08:13:08;18.52;76.24
73133;DHT22;61320;52.008;4.530;2022-09-09T08:15:34;18.52;76.10
73133;DHT22;61320;52.008;4.530;2022-09-09T08:17:59;18.48;76.09
73133;DHT22;61320;52.008;4.530;2022-09-09T08:20:25;18.47;76.14
73133;DHT22;61320;52.008;4.530;2022-09-09T08:22:50;18.50;76.01
73133;DHT22;61320;52.008;4.530;2022-09-09T08:25:16;18.44;75.46
73133;DHT22;61320;52.008;4.530;2022-09-09T08:27:41;18.41;77.06
73133;DHT22;61320;52.008;4.530;2022-09-09T08:30:07;18.44;77.10
73133;DHT22;61320;52.008;4.530;2022-09-09T08:32:32;18.52;76.76
73133;DHT22;61320;52.008;4.530;2022-09-09T08:35:00;18.54;77.06
73133;DHT22;61320;52.008;4.530;2022-09-09T08:37:25;18.45;76.22
73133;DHT22;61320;52.008;4.530;2022-09-09T08:39:51;18.45;77.71
73133;DHT22;61320;52.008;4.530;2022-09-09T08:45:27;18.47;76.04
73133;DHT22;61320;52.008;4.530;2022-09-09T08:50:27;18.45;76.23
73133;DHT22;61320;52.008;4.530;2022-09-09T08:53:22;18.51;77.33
73133;DHT22;61320;52.008;4.530;2022-09-09T08:56:14;18.47;76.20
73133;DHT22;61320;52.008;4.530;2022-09-09T08:58:49;18.44;77.03
73133;DHT22;61320;52.008;4.530;2022-09-09T09:01:40;18.50;77.83
73133;DHT22;61320;52.008;4.530;2022-09-09T09:07:54;18.54;78.02
73133;DHT22;61320;52.008;4.530;2022-09-09T09:12:57;18.52;78.17
73133;DHT22;61320;52.008;4.530;2022-09-09T09:15:27;18.47;78.40
73133;DHT22;61320;52.008;4.530;2022-09-09T09:17:55;18.44;79.14
73133;DHT22;61320;52.008;4.530;2022-09-09T09:20:37;18.36;79.38
73133;DHT22;61320;52.008;4.530;2022-09-09T09:23:19;18.29;78.48
73133;DHT22;61320;52.008;4.530;2022-09-09T09:25:47;18.17;79.25
73133;DHT22;61320;52.008;4.530;2022-09-09T09:28:17;18.13;79.99
73133;DHT22;61320;52.008;4.530;2022-09-09T09:33:20;18.16;81.60
73133;DHT22;61320;52.008;4.530;2022-09-09T09:35:49;18.23;80.46
73133;DHT22;61320;52.008;4.530;2022-09-09T09:38:21;18.30;81.05
73133;DHT22;61320;52.008;4.530;2022-09-09T09:40:52;18.30;81.40
73133;DHT22;61320;52.008;4.530;2022-09-09T09:43:35;18.31;82.01
73133;DHT22;61320;52.008;4.530;2022-09-09T09:46:04;18.38;81.38
73133;DHT22;61320;52.008;4.530;2022-09-09T09:48:31;18.41;81.56
73133;DHT22;61320;52.008;4.530;2022-09-09T09:51:00;18.47;80.66
73133;DHT22;61320;52.008;4.530;2022-09-09T09:53:33;18.55;80.13
73133;DHT22;61320;52.008;4.530;2022-09-09T09:56:02;18.62;80.01
73133;DHT22;61320;52.008;4.530;2022-09-09T09:58:38;18.71;81.47
73133;DHT22;61320;52.008;4.530;2022-09-09T10:03:58;18.84;81.17
73133;DHT22;61320;52.008;4.530;2022-09-09T10:06:36;18.84;80.64
73133;DHT22;61320;52.008;4.530;2022-09-09T10:09:17;18.88;79.70
73133;DHT22;61320;52.008;4.530;2022-09-09T10:34:12;18.14;85.71
73133;DHT22;61320;52.008;4.530;2022-09-09T10:36:48;18.17;84.70
73133;DHT22;61320;52.008;4.530;2022-09-09T10:39:34;18.16;84.53
73133;DHT22;61320;52.008;4.530;2022-09-09T10:42:09;18.11;85.54
73133;DHT22;61320;52.008;4.530;2022-09-09T10:45:06;18.17;85.26
73133;DHT22;61320;52.008;4.530;2022-09-09T10:55:59;18.11;84.91
73133;DHT22;61320;52.008;4.530;2022-09-09T10:58:40;18.16;85.60
73133;DHT22;61320;52.008;4.530;2022-09-09T11:01:19;18.21;84.89
73133;DHT22;61320;52.008;4.530;2022-09-09T11:03:58;18.21;83.86
73133;DHT22;61320;52.008;4.530;2022-09-09T11:06:34;18.29;84.58
73133;DHT22;61320;52.008;4.530;2022-09-09T11:09:03;18.57;85.20
73133;DHT22;61320;52.008;4.530;2022-09-09T11:14:31;18.64;85.25
73133;DHT22;61320;52.008;4.530;2022-09-09T11:17:02;18.67;84.15
73133;DHT22;61320;52.008;4.530;2022-09-09T11:19:43;18.59;83.62
73133;DHT22;61320;52.008;4.530;2022-09-09T11:22:32;18.58;83.86
73133;DHT22;61320;52.008;4.530;2022-09-09T11:25:10;18.65;84.88
73133;DHT22;61320;52.008;4.530;2022-09-09T11:28:01;18.78;84.40
73133;DHT22;61320;52.008;4.530;2022-09-09T11:34:13;19.05;85.72
73133;DHT22;61320;52.008;4.530;2022-09-09T11:39:52;19.17;84.37
73133;DHT22;61320;52.008;4.530;2022-09-09T11:42:24;19.20;83.26
73133;DHT22;61320;52.008;4.530;2022-09-09T11:44:51;19.19;83.01
73133;DHT22;61320;52.008;4.530;2022-09-09T11:47:31;19.13;82.00
73133;DHT22;61320;52.008;4.530;2022-09-09T11:50:22;18.98;83.06
73133;DHT22;61320;52.008;4.530;2022-09-09T11:53:24;18.92;82.37
73133;DHT22;61320;52.008;4.530;2022-09-09T11:56:04;18.79;83.83
73133;DHT22;61320;52.008;4.530;2022-09-09T11:58:37;18.68;84.75
73133;DHT22;61320;52.008;4.530;2022-09-09T12:01:33;18.47;85.29
73133;DHT22;61320;52.008;4.530;2022-09-09T12:06:58;18.14;86.25
73133;DHT22;61320;52.008;4.530;2022-09-09T12:14:43;18.23;87.09
73133;DHT22;61320;52.008;4.530;2022-09-09T12:17:22;18.31;87.16
73133;DHT22;61320;52.008;4.530;2022-09-09T12:20:00;18.33;87.14
73133;DHT22;61320;52.008;4.530;2022-09-09T12:25:16;18.21;85.54
73133;DHT22;61320;52.008;4.530;2022-09-09T12:28:08;18.09;86.24
73133;DHT22;61320;52.008;4.530;2022-09-09T12:30:58;18.07;87.24
73133;DHT22;61320;52.008;4.530;2022-09-09T12:33:35;18.11;86.58
73133;DHT22;61320;52.008;4.530;2022-09-09T12:36:04;18.11;87.09
73133;DHT22;61320;52.008;4.530;2022-09-09T12:38:36;18.07;85.97
73133;DHT22;61320;52.008;4.530;2022-09-09T12:41:03;18.09;86.27
73133;DHT22;61320;52.008;4.530;2022-09-09T12:43:30;18.07;86.32
73133;DHT22;61320;52.008;4.530;2022-09-09T12:46:07;18.10;86.30
73133;DHT22;61320;52.008;4.530;2022-09-09T12:48:40;18.13;86.10
73133;DHT22;61320;52.008;4.530;2022-09-09T12:51:29;18.17;86.82
73133;DHT22;61320;52.008;4.530;2022-09-09T12:53:56;18.13;86.01
73133;DHT22;61320;52.008;4.530;2022-09-09T12:56:25;18.11;86.52
73133;DHT22;61320;52.008;4.530;2022-09-09T12:58:54;18.21;86.78
73133;DHT22;61320;52.008;4.530;2022-09-09T13:01:29;18.17;86.29
73133;DHT22;61320;52.008;4.530;2022-09-09T13:03:56;18.23;85.93
73133;DHT22;61320;52.008;4.530;2022-09-09T13:06:26;18.23;85.94
73133;DHT22;61320;52.008;4.530;2022-09-09T13:08:55;18.24;85.92
73133;DHT22;61320;52.008;4.530;2022-09-09T13:11:30;18.29;86.10
73133;DHT22;61320;52.008;4.530;2022-09-09T13:13:57;18.38;86.38
73133;DHT22;61320;52.008;4.530;2022-09-09T13:16:31;18.40;86.82
73133;DHT22;61320;52.008;4.530;2022-09-09T13:19:01;18.54;86.54
73133;DHT22;61320;52.008;4.530;2022-09-09T13:21:34;18.71;85.57
73133;DHT22;61320;52.008;4.530;2022-09-09T13:24:00;18.87;85.61
73133;DHT22;61320;52.008;4.530;2022-09-09T13:26:29;18.98;85.31
73133;DHT22;61320;52.008;4.530;2022-09-09T13:29:09;19.09;85.76
73133;DHT22;61320;52.008;4.530;2022-09-09T13:31:43;19.06;84.92
73133;DHT22;61320;52.008;4.530;2022-09-09T13:34:27;19.15;85.44
73133;DHT22;61320;52.008;4.530;2022-09-09T13:37:00;19.15;84.48
73133;DHT22;61320;52.008;4.530;2022-09-09T13:39:35;19.10;83.74
73133;DHT22;61320;52.008;4.530;2022-09-09T13:42:03;19.02;85.16
73133;DHT22;61320;52.008;4.530;2022-09-09T13:44:36;18.94;85.01
73133;DHT22;61320;52.008;4.530;2022-09-09T13:47:17;18.92;85.07
73133;DHT22;61320;52.008;4.530;2022-09-09T13:49:44;18.87;84.64
73133;DHT22;61320;52.008;4.530;2022-09-09T13:52:13;18.69;84.64
73133;DHT22;61320;52.008;4.530;2022-09-09T13:54:40;18.57;85.60
73133;DHT22;61320;52.008;4.530;2022-09-09T13:57:20;18.51;86.30
73133;DHT22;61320;52.008;4.530;2022-09-09T13:59:46;18.50;86.80
73133;DHT22;61320;52.008;4.530;2022-09-09T14:02:12;18.52;86.47
73133;DHT22;61320;52.008;4.530;2022-09-09T14:04:38;18.50;86.72
73133;DHT22;61320;52.008;4.530;2022-09-09T14:07:19;18.47;86.30
73133;DHT22;61320;52.008;4.530;2022-09-09T14:09:45;18.44;86.62
73133;DHT22;61320;52.008;4.530;2022-09-09T14:12:15;18.48;85.77
73133;DHT22;61320;52.008;4.530;2022-09-09T14:14:42;18.44;86.47
73133;DHT22;61320;52.008;4.530;2022-09-09T14:17:08;18.44;86.25
73133;DHT22;61320;52.008;4.530;2022-09-09T14:19:34;18.40;85.49
73133;DHT22;61320;52.008;4.530;2022-09-09T14:22:00;18.38;86.02
73133;DHT22;61320;52.008;4.530;2022-09-09T14:24:26;18.40;84.94
73133;DHT22;61320;52.008;4.530;2022-09-09T14:26:53;18.33;86.30
73133;DHT22;61320;52.008;4.530;2022-09-09T14:29:19;18.40;84.96
73133;DHT22;61320;52.008;4.530;2022-09-09T14:31:44;18.37;86.25
73133;DHT22;61320;52.008;4.530;2022-09-09T14:34:10;18.47;86.49
73133;DHT22;61320;52.008;4.530;2022-09-09T14:36:37;18.52;86.48
73133;DHT22;61320;52.008;4.530;2022-09-09T14:39:03;18.64;85.86
73133;DHT22;61320;52.008;4.530;2022-09-09T14:41:30;18.75;86.22
73133;DHT22;61320;52.008;4.530;2022-09-09T14:43:55;18.94;86.15
73133;DHT22;61320;52.008;4.530;2022-09-09T14:46:21;19.10;85.51
73133;DHT22;61320;52.008;4.530;2022-09-09T14:48:47;19.31;86.51
73133;DHT22;61320;52.008;4.530;2022-09-09T14:51:22;19.58;86.42
73133;DHT22;61320;52.008;4.530;2022-09-09T14:53:51;19.78;85.49
73133;DHT22;61320;52.008;4.530;2022-09-09T14:56:21;19.73;82.67
73133;DHT22;61320;52.008;4.530;2022-09-09T14:58:48;19.61;82.56
73133;DHT22;61320;52.008;4.530;2022-09-09T15:01:16;19.63;83.17
73133;DHT22;61320;52.008;4.530;2022-09-09T15:04:10;19.57;83.66
73133;DHT22;61320;52.008;4.530;2022-09-09T15:06:36;19.47;82.06
73133;DHT22;61320;52.008;4.530;2022-09-09T15:09:05;19.36;82.14
73133;DHT22;61320;52.008;4.530;2022-09-09T15:11:34;19.37;82.19
73133;DHT22;61320;52.008;4.530;2022-09-09T15:14:03;19.43;81.59
73133;DHT22;61320;52.008;4.530;2022-09-09T15:16:29;19.51;82.20
73133;DHT22;61320;52.008;4.530;2022-09-09T15:18:57;19.50;80.04
73133;DHT22;61320;52.008;4.530;2022-09-09T15:21:26;19.49;80.16
73133;DHT22;61320;52.008;4.530;2022-09-09T15:23:51;19.41;81.54
73133;DHT22;61320;52.008;4.530;2022-09-09T15:26:18;19.36;80.75
73133;DHT22;61320;52.008;4.530;2022-09-09T15:28:45;19.29;82.96
73133;DHT22;61320;52.008;4.530;2022-09-09T15:31:24;19.30;82.86
73133;DHT22;61320;52.008;4.530;2022-09-09T15:33:55;19.27;83.15
73133;DHT22;61320;52.008;4.530;2022-09-09T15:36:40;19.27;83.02
73133;DHT22;61320;52.008;4.530;2022-09-09T15:39:08;19.27;79.71
73133;DHT22;61320;52.008;4.530;2022-09-09T15:41:38;19.23;80.50
73133;DHT22;61320;52.008;4.530;2022-09-09T15:44:04;19.15;81.89
73133;DHT22;61320;52.008;4.530;2022-09-09T15:49:12;19.00;83.61
73133;DHT22;61320;52.008;4.530;2022-09-09T15:51:41;18.99;82.96
73133;DHT22;61320;52.008;4.530;2022-09-09T15:54:09;18.82;83.61
73133;DHT22;61320;52.008;4.530;2022-09-09T15:56:34;18.87;83.58
73133;DHT22;61320;52.008;4.530;2022-09-09T15:59:01;18.82;84.84
73133;DHT22;61320;52.008;4.530;2022-09-09T16:01:29;18.85;83.64
73133;DHT22;61320;52.008;4.530;2022-09-09T16:03:56;18.91;84.00
73133;DHT22;61320;52.008;4.530;2022-09-09T16:06:23;18.95;85.05
73133;DHT22;61320;52.008;4.530;2022-09-09T16:08:52;19.12;84.03
73133;DHT22;61320;52.008;4.530;2022-09-09T16:11:22;19.15;84.36
73133;DHT22;61320;52.008;4.530;2022-09-09T16:13:49;19.06;83.16
73133;DHT22;61320;52.008;4.530;2022-09-09T16:16:17;18.92;83.61
73133;DHT22;61320;52.008;4.530;2022-09-09T16:18:50;18.82;85.07
73133;DHT22;61320;52.008;4.530;2022-09-09T16:21:21;18.85;85.96
73133;DHT22;61320;52.008;4.530;2022-09-09T16:23:51;18.87;84.57
73133;DHT22;61320;52.008;4.530;2022-09-09T16:26:17;18.72;84.44
73133;DHT22;61320;52.008;4.530;2022-09-09T16:28:43;18.59;84.02
73133;DHT22;61320;52.008;4.530;2022-09-09T16:31:14;18.52;84.33
73133;DHT22;61320;52.008;4.530;2022-09-09T16:33:40;18.52;85.11
73133;DHT22;61320;52.008;4.530;2022-09-09T16:36:09;18.51;84.46
73133;DHT22;61320;52.008;4.530;2022-09-09T16:38:36;18.51;84.35
73133;DHT22;61320;52.008;4.530;2022-09-09T16:41:04;18.45;85.81
73133;DHT22;61320;52.008;4.530;2022-09-09T16:43:32;18.52;85.16
73133;DHT22;61320;52.008;4.530;2022-09-09T16:45:58;18.54;85.07
73133;DHT22;61320;52.008;4.530;2022-09-09T16:48:26;18.65;84.38
73133;DHT22;61320;52.008;4.530;2022-09-09T16:50:52;18.64;82.42
73133;DHT22;61320;52.008;4.530;2022-09-09T16:53:18;18.59;84.20
73133;DHT22;61320;52.008;4.530;2022-09-09T16:55:43;18.50;84.33
73133;DHT22;61320;52.008;4.530;2022-09-09T16:58:12;18.54;82.88
73133;DHT22;61320;52.008;4.530;2022-09-09T17:00:38;18.41;83.92
73133;DHT22;61320;52.008;4.530;2022-09-09T17:03:03;18.38;84.03
73133;DHT22;61320;52.008;4.530;2022-09-09T17:05:29;18.43;84.44
73133;DHT22;61320;52.008;4.530;2022-09-09T17:07:55;18.41;84.10
73133;DHT22;61320;52.008;4.530;2022-09-09T17:10:23;18.43;83.59
73133;DHT22;61320;52.008;4.530;2022-09-09T17:12:49;18.37;83.83
73133;DHT22;61320;52.008;4.530;2022-09-09T17:15:15;18.41;84.20
73133;DHT22;61320;52.008;4.530;2022-09-09T17:17:41;18.40;83.47
73133;DHT22;61320;52.008;4.530;2022-09-09T17:20:10;18.40;83.18
73133;DHT22;61320;52.008;4.530;2022-09-09T17:22:36;18.37;84.31
73133;DHT22;61320;52.008;4.530;2022-09-09T17:25:01;18.41;84.47
73133;DHT22;61320;52.008;4.530;2022-09-09T17:27:28;18.43;83.71
73133;DHT22;61320;52.008;4.530;2022-09-09T17:29:57;18.43;83.23
73133;DHT22;61320;52.008;4.530;2022-09-09T17:32:24;18.43;84.32
73133;DHT22;61320;52.008;4.530;2022-09-09T17:34:50;18.48;84.52
73133;DHT22;61320;52.008;4.530;2022-09-09T17:37:15;18.38;83.63
73133;DHT22;61320;52.008;4.530;2022-09-09T17:39:41;18.18;83.69